createdAt,value
2018-01-26T00:01:10.655Z,1.30
2018-01-26T00:03:38.164Z,1.20
2018-01-26T00:06:05.675Z,1.20
2018-01-26T00:08:33.180Z,1.20
2018-01-26T00:11:00.705Z,1.20
2018-01-26T00:13:28.210Z,1.20
2018-01-26T00:15:55.731Z,1.10
2018-01-26T00:18:23.242Z,1.20
2018-01-26T00:20:51.512Z,1.10
2018-01-26T00:23:19.045Z,1.00
2018-01-26T00:25:46.543Z,1.10
2018-01-26T00:28:14.051Z,1.10
2018-01-26T00:30:41.589Z,1.10
2018-01-26T00:33:09.111Z,1.10
2018-01-26T00:35:37.383Z,1.10
2018-01-26T00:38:04.906Z,1.10
2018-01-26T00:40:32.411Z,1.10
2018-01-26T00:43:00.689Z,1.10
2018-01-26T00:45:28.975Z,1.20
2018-01-26T00:47:56.479Z,1.10
2018-01-26T00:50:23.983Z,1.20
2018-01-26T00:52:51.523Z,1.20
2018-01-26T00:55:19.049Z,1.20
2018-01-26T00:57:46.559Z,1.10
2018-01-26T01:00:14.089Z,1.10
2018-01-26T01:02:41.608Z,1.10
2018-01-26T01:05:09.127Z,1.10
2018-01-26T01:07:37.419Z,1.10
2018-01-26T01:10:04.919Z,1.10
2018-01-26T01:12:32.431Z,1.10
2018-01-26T01:15:00.719Z,1.00
2018-01-26T01:17:28.251Z,1.00
2018-01-26T01:19:55.759Z,1.00
2018-01-26T01:22:23.269Z,1.00
2018-01-26T01:24:51.544Z,1.00
2018-01-26T01:27:19.823Z,1.00
2018-01-26T01:29:48.101Z,1.00
2018-01-26T01:32:16.375Z,1.00
2018-01-26T01:34:44.651Z,1.00
2018-01-26T01:37:12.937Z,1.00
2018-01-26T01:39:41.209Z,1.10
2018-01-26T01:42:09.489Z,1.10
2018-01-26T01:44:37.855Z,1.10
2018-01-26T01:47:05.377Z,1.00
2018-01-26T01:49:32.885Z,1.10
2018-01-26T01:52:00.407Z,1.00
2018-01-26T01:54:27.913Z,1.00
2018-01-26T01:56:55.417Z,1.10
2018-01-26T01:59:22.975Z,1.00
2018-01-26T02:01:50.435Z,1.00
2018-01-26T02:04:17.937Z,1.00
2018-01-26T02:06:46.215Z,1.00
2018-01-26T02:09:14.494Z,1.00
2018-01-26T02:11:42.763Z,1.00
2018-01-26T02:14:11.047Z,1.00
2018-01-26T02:16:39.359Z,1.00
2018-01-26T02:19:06.860Z,0.90
2018-01-26T02:21:34.369Z,0.90
2018-01-26T02:24:01.871Z,0.90
2018-01-26T02:26:29.381Z,0.90
2018-01-26T02:28:56.892Z,0.90
2018-01-26T02:31:24.409Z,0.90
2018-01-26T02:33:51.907Z,0.90
2018-01-26T02:36:19.629Z,0.90
2018-01-26T02:38:47.139Z,0.90
2018-01-26T02:41:15.402Z,0.90
2018-01-26T02:43:43.701Z,0.90
2018-01-26T02:46:11.977Z,0.90
2018-01-26T02:48:40.260Z,0.80
2018-01-26T02:51:08.542Z,0.80
2018-01-26T02:53:36.059Z,0.80
2018-01-26T02:56:03.573Z,0.80
2018-01-26T02:58:31.091Z,0.80
2018-01-26T03:00:58.603Z,0.80
2018-01-26T03:03:26.107Z,0.80
2018-01-26T03:05:53.631Z,0.80
2018-01-26T03:08:21.136Z,0.80
2018-01-26T03:10:49.418Z,0.70
2018-01-26T03:13:17.707Z,0.70
2018-01-26T03:15:45.219Z,0.70
2018-01-26T03:18:12.722Z,0.70
2018-01-26T03:20:40.243Z,0.70
2018-01-26T03:23:07.734Z,0.70
2018-01-26T03:25:36.003Z,0.70
2018-01-26T03:28:04.301Z,0.70
2018-01-26T03:30:31.809Z,0.70
2018-01-26T03:32:59.321Z,0.70
2018-01-26T03:35:26.835Z,0.70
2018-01-26T03:37:54.345Z,0.70
2018-01-26T03:40:22.615Z,0.70
2018-01-26T03:42:50.139Z,0.70
2018-01-26T03:45:17.647Z,0.70
2018-01-26T03:47:45.164Z,0.70
2018-01-26T03:50:13.457Z,0.70
2018-01-26T03:52:40.979Z,0.70
2018-01-26T03:55:08.509Z,0.70
2018-01-26T03:57:36.027Z,0.70
2018-01-26T04:00:04.299Z,0.70
2018-01-26T04:02:32.583Z,0.70
2018-01-26T04:05:00.878Z,0.70
2018-01-26T04:07:28.386Z,0.70
2018-01-26T04:09:55.903Z,0.80
2018-01-26T04:12:23.415Z,0.80
2018-01-26T04:14:50.921Z,0.80
2018-01-26T04:17:18.429Z,0.80
2018-01-26T04:19:46.709Z,0.80
2018-01-26T04:22:14.221Z,0.70
2018-01-26T04:24:41.725Z,0.70
2018-01-26T04:27:10.020Z,0.80
2018-01-26T04:29:38.420Z,0.80
2018-01-26T04:32:05.931Z,0.70
2018-01-26T04:34:33.485Z,0.80
2018-01-26T04:37:00.996Z,0.80
2018-01-26T04:39:28.501Z,0.80
2018-01-26T04:41:56.027Z,0.80
2018-01-26T04:44:23.523Z,0.80
2018-01-26T04:46:51.023Z,0.80
2018-01-26T04:49:18.543Z,0.80
2018-01-26T04:51:46.051Z,0.80
2018-01-26T04:54:13.556Z,0.80
2018-01-26T04:56:41.056Z,0.80
2018-01-26T04:59:08.563Z,0.80
2018-01-26T05:01:36.063Z,0.80
2018-01-26T05:04:04.423Z,0.80
2018-01-26T05:06:31.938Z,0.70
2018-01-26T05:08:59.437Z,0.80
2018-01-26T05:11:27.747Z,0.90
2018-01-26T05:13:55.255Z,0.80
2018-01-26T05:16:22.788Z,0.90
2018-01-26T05:18:50.300Z,0.90
2018-01-26T05:21:18.577Z,0.90
2018-01-26T05:23:46.853Z,0.90
2018-01-26T05:26:15.138Z,0.90
2018-01-26T05:28:42.652Z,0.80
2018-01-26T05:31:10.153Z,0.90
2018-01-26T05:33:37.667Z,0.90
2018-01-26T05:36:05.167Z,0.90
2018-01-26T05:38:33.435Z,0.90
2018-01-26T05:41:01.731Z,1.00
2018-01-26T05:43:29.243Z,0.90
2018-01-26T05:45:56.765Z,1.00
2018-01-26T05:48:24.303Z,1.00
2018-01-26T05:50:52.577Z,1.00
2018-01-26T05:53:20.913Z,1.00
2018-01-26T05:55:48.423Z,0.90
2018-01-26T05:58:15.927Z,1.00
2018-01-26T06:00:43.431Z,1.00
2018-01-26T06:03:10.958Z,0.90
2018-01-26T06:05:38.467Z,1.00
2018-01-26T06:08:05.988Z,1.00
2018-01-26T06:10:34.276Z,1.00
2018-01-26T06:13:02.557Z,1.00
2018-01-26T06:15:30.818Z,1.00
2018-01-26T06:17:59.105Z,1.00
2018-01-26T06:20:27.381Z,1.00
2018-01-26T06:22:55.799Z,1.00
2018-01-26T06:25:23.325Z,1.00
2018-01-26T06:27:51.611Z,1.10
2018-01-26T06:30:19.146Z,1.00
2018-01-26T06:32:46.659Z,1.10
2018-01-26T06:35:14.176Z,1.10
2018-01-26T06:37:42.454Z,1.10
2018-01-26T06:40:10.751Z,1.10
2018-01-26T06:42:38.259Z,1.10
2018-01-26T06:45:05.793Z,1.10
2018-01-26T06:47:33.297Z,1.10
2018-01-26T06:50:01.593Z,1.10
2018-01-26T06:52:29.117Z,1.10
2018-01-26T06:54:56.618Z,1.10
2018-01-26T06:57:24.141Z,1.10
2018-01-26T06:59:52.428Z,1.10
2018-01-26T07:02:20.721Z,1.10
2018-01-26T07:04:48.222Z,1.10
2018-01-26T07:07:15.741Z,1.10
2018-01-26T07:09:43.259Z,1.10
2018-01-26T07:12:10.773Z,1.20
2018-01-26T07:14:38.296Z,1.20
2018-01-26T07:17:05.813Z,1.20
2018-01-26T07:19:33.319Z,1.20
2018-01-26T07:22:01.619Z,1.20
2018-01-26T07:24:29.138Z,1.20
2018-01-26T07:26:56.658Z,1.20
2018-01-26T07:29:24.198Z,1.20
2018-01-26T07:31:51.721Z,1.20
2018-01-26T07:34:19.245Z,1.30
2018-01-26T07:36:46.760Z,1.30
2018-01-26T07:39:14.284Z,1.30
2018-01-26T07:41:41.810Z,1.30
2018-01-26T07:44:09.333Z,1.30
2018-01-26T07:46:36.847Z,1.40
2018-01-26T07:49:04.465Z,1.40
2018-01-26T07:51:32.011Z,1.40
2018-01-26T07:53:59.524Z,1.40
2018-01-26T07:56:27.034Z,1.50
2018-01-26T07:58:54.548Z,1.50
2018-01-26T08:01:22.047Z,1.50
2018-01-26T08:03:49.568Z,1.50
2018-01-26T08:06:17.099Z,1.60
2018-01-26T08:08:44.630Z,1.60
2018-01-26T08:11:12.144Z,1.60
2018-01-26T08:13:39.658Z,1.60
2018-01-26T08:16:07.930Z,1.70
2018-01-26T08:18:35.444Z,1.70
2018-01-26T08:21:03.029Z,1.80
2018-01-26T08:23:30.520Z,1.80
2018-01-26T08:25:58.053Z,1.80
2018-01-26T08:28:25.576Z,1.80
2018-01-26T08:30:53.081Z,1.80
2018-01-26T08:33:20.589Z,1.90
2018-01-26T08:35:48.122Z,1.90
2018-01-26T08:38:15.642Z,1.90
2018-01-26T08:40:43.168Z,2.00
2018-01-26T08:43:10.702Z,2.00
2018-01-26T08:45:38.238Z,2.00
2018-01-26T08:48:05.762Z,2.00
2018-01-26T08:50:33.275Z,2.00
2018-01-26T08:53:00.783Z,2.10
2018-01-26T08:55:33.834Z,2.10
2018-01-26T08:58:01.362Z,2.10
2018-01-26T09:00:28.883Z,2.10
2018-01-26T09:02:57.173Z,2.20
2018-01-26T09:05:25.466Z,2.20
2018-01-26T09:07:52.979Z,2.10
2018-01-26T09:10:20.487Z,2.20
2018-01-26T09:12:48.015Z,2.20
2018-01-26T09:15:16.308Z,2.20
2018-01-26T09:17:44.592Z,2.20
2018-01-26T09:20:12.116Z,2.20
2018-01-26T09:22:39.632Z,2.30
2018-01-26T09:25:07.149Z,2.30
2018-01-26T09:27:34.669Z,2.30
2018-01-26T09:30:02.184Z,2.30
2018-01-26T09:32:30.474Z,2.40
2018-01-26T09:34:58.003Z,2.30
2018-01-26T09:37:26.288Z,2.40
2018-01-26T09:39:54.575Z,2.30
2018-01-26T09:42:22.106Z,2.30
2018-01-26T09:44:49.645Z,2.40
2018-01-26T09:47:17.159Z,2.30
2018-01-26T09:49:44.679Z,2.30
2018-01-26T09:52:12.203Z,2.30
2018-01-26T09:54:40.820Z,2.30
2018-01-26T09:57:08.358Z,2.30
2018-01-26T09:59:35.863Z,2.30
2018-01-26T10:02:03.390Z,2.30
2018-01-26T10:04:30.912Z,2.30
2018-01-26T10:06:58.435Z,2.40
2018-01-26T10:09:26.732Z,2.30
2018-01-26T10:11:54.248Z,2.30
2018-01-26T10:14:21.753Z,2.40
2018-01-26T10:16:49.259Z,2.40
2018-01-26T10:19:16.776Z,2.40
2018-01-26T10:21:44.327Z,2.40
2018-01-26T10:24:11.841Z,2.30
2018-01-26T10:26:39.364Z,2.30
2018-01-26T10:29:06.861Z,2.40
2018-01-26T10:31:34.354Z,2.40
2018-01-26T10:34:01.957Z,2.40
2018-01-26T10:36:29.460Z,2.40
2018-01-26T10:38:57.740Z,2.50
2018-01-26T10:41:26.349Z,2.50
2018-01-26T10:43:53.857Z,2.50
2018-01-26T10:46:21.371Z,2.50
2018-01-26T10:48:48.899Z,2.50
2018-01-26T10:51:17.168Z,2.50
2018-01-26T10:53:44.678Z,2.50
2018-01-26T10:56:12.192Z,2.50
2018-01-26T10:58:40.480Z,2.60
2018-01-26T11:01:07.984Z,2.60
2018-01-26T11:03:35.496Z,2.50
2018-01-26T11:06:03.024Z,2.50
2018-01-26T11:08:30.529Z,2.50
2018-01-26T11:10:58.052Z,2.60
2018-01-26T11:13:25.556Z,2.60
2018-01-26T11:15:53.073Z,2.60
2018-01-26T11:18:21.366Z,2.60
2018-01-26T11:20:48.875Z,2.60
2018-01-26T11:23:16.380Z,2.60
2018-01-26T11:25:43.898Z,2.60
2018-01-26T11:28:11.404Z,2.70
2018-01-26T11:30:38.900Z,2.70
2018-01-26T11:33:06.408Z,2.70
2018-01-26T11:35:33.916Z,2.80
2018-01-26T11:38:01.426Z,2.80
2018-01-26T11:40:28.954Z,2.80
2018-01-26T11:42:56.454Z,2.80
2018-01-26T11:45:23.980Z,2.80
2018-01-26T11:47:51.502Z,2.90
2018-01-26T11:50:19.004Z,2.90
2018-01-26T11:52:47.284Z,2.90
2018-01-26T11:55:15.560Z,2.90
2018-01-26T11:57:43.064Z,2.90
2018-01-26T12:00:10.575Z,2.90
2018-01-26T12:02:38.090Z,2.90
2018-01-26T12:05:05.588Z,2.90
2018-01-26T12:07:33.095Z,2.90
2018-01-26T12:10:00.646Z,3.00
2018-01-26T12:12:28.153Z,3.00
2018-01-26T12:14:55.656Z,3.00
2018-01-26T12:17:23.170Z,3.00
2018-01-26T12:19:50.678Z,3.00
2018-01-26T12:22:18.188Z,3.00
2018-01-26T12:24:45.707Z,3.00
2018-01-26T12:27:13.221Z,2.90
2018-01-26T12:29:40.751Z,2.90
2018-01-26T12:32:08.297Z,2.90
2018-01-26T12:34:35.841Z,2.90
2018-01-26T12:37:03.342Z,2.90
2018-01-26T12:39:30.842Z,2.90
2018-01-26T12:41:58.353Z,2.90
2018-01-26T12:44:25.864Z,2.90
2018-01-26T12:46:53.425Z,2.90
2018-01-26T12:49:20.948Z,2.90
2018-01-26T12:51:48.820Z,2.90
2018-01-26T12:54:16.347Z,2.90
2018-01-26T12:56:43.912Z,2.90
2018-01-26T12:59:11.404Z,2.90
2018-01-26T13:01:38.940Z,2.90
2018-01-26T13:04:06.498Z,2.90
2018-01-26T13:06:34.332Z,2.90
2018-01-26T13:09:01.867Z,2.90
2018-01-26T13:11:29.659Z,3.00
2018-01-26T13:13:57.193Z,3.00
2018-01-26T13:16:24.768Z,3.00
2018-01-26T13:18:52.362Z,3.10
2018-01-26T13:21:19.882Z,3.10
2018-01-26T13:23:47.458Z,3.10
2018-01-26T13:26:15.012Z,3.10
2018-01-26T13:28:42.556Z,3.00
2018-01-26T13:31:10.094Z,3.00
2018-01-26T13:33:37.672Z,3.00
2018-01-26T13:36:05.269Z,3.00
2018-01-26T13:38:32.873Z,3.00
2018-01-26T13:41:01.560Z,3.00
2018-01-26T13:43:29.106Z,2.90
2018-01-26T13:45:56.715Z,2.90
2018-01-26T13:48:24.244Z,2.90
2018-01-26T13:50:52.602Z,2.90
2018-01-26T13:53:20.920Z,2.90
2018-01-26T13:55:49.202Z,2.90
2018-01-26T13:58:16.741Z,2.90
2018-01-26T14:00:44.294Z,2.90
2018-01-26T14:03:11.873Z,2.90
2018-01-26T14:05:39.436Z,3.00
2018-01-26T14:08:06.976Z,3.00
2018-01-26T14:10:34.624Z,3.00
2018-01-26T14:13:02.200Z,3.00
2018-01-26T14:15:29.779Z,3.00
2018-01-26T14:17:57.298Z,3.00
2018-01-26T14:20:25.620Z,3.00
2018-01-26T14:22:53.212Z,3.00
2018-01-26T14:25:20.751Z,3.00
2018-01-26T14:27:48.638Z,3.10
2018-01-26T14:30:16.888Z,3.00
2018-01-26T14:32:44.412Z,3.00
2018-01-26T14:35:11.951Z,3.00
2018-01-26T14:37:40.296Z,3.00
2018-01-26T14:40:07.871Z,2.90
2018-01-26T14:42:35.416Z,2.90
2018-01-26T14:45:03.024Z,3.00
2018-01-26T14:47:30.577Z,3.00
2018-01-26T14:49:58.111Z,3.00
2018-01-26T14:52:25.678Z,3.00
2018-01-26T14:54:53.217Z,3.00
2018-01-26T14:57:20.762Z,3.00
2018-01-26T14:59:48.358Z,3.00
2018-01-26T15:02:16.730Z,3.00
2018-01-26T15:04:44.257Z,3.00
2018-01-26T15:07:11.833Z,3.10
2018-01-26T15:09:39.353Z,3.00
2018-01-26T15:12:06.892Z,3.00
2018-01-26T15:14:34.459Z,3.00
2018-01-26T15:17:02.000Z,3.00
2018-01-26T15:19:29.864Z,3.00
2018-01-26T15:21:57.448Z,3.00
2018-01-26T15:24:24.964Z,3.00
2018-01-26T15:26:52.504Z,3.00
2018-01-26T15:29:20.066Z,3.00
2018-01-26T15:31:47.630Z,3.00
2018-01-26T15:34:15.208Z,3.00
2018-01-26T15:36:42.750Z,3.00
2018-01-26T15:39:10.326Z,3.00
2018-01-26T15:41:37.936Z,3.00
2018-01-26T15:44:05.478Z,3.00
2018-01-26T15:46:33.026Z,3.00
2018-01-26T15:49:01.364Z,3.00
2018-01-26T15:51:30.026Z,3.00
2018-01-26T15:53:57.564Z,3.00
2018-01-26T15:56:25.098Z,3.00
2018-01-26T15:58:52.675Z,3.00
2018-01-26T16:01:20.986Z,2.90
2018-01-26T16:03:48.529Z,2.90
2018-01-26T16:06:16.086Z,2.90
2018-01-26T16:08:43.608Z,2.90
2018-01-26T16:11:11.104Z,2.90
2018-01-26T16:13:38.626Z,2.90
2018-01-26T16:16:06.130Z,2.90
2018-01-26T16:18:33.645Z,2.90
2018-01-26T16:21:03.100Z,2.90
2018-01-26T16:23:30.614Z,2.90
2018-01-26T16:25:58.117Z,2.90
2018-01-26T16:28:25.638Z,2.90
2018-01-26T16:30:53.157Z,2.90
2018-01-26T16:33:20.667Z,2.90
2018-01-26T16:35:48.196Z,2.90
2018-01-26T16:38:15.724Z,2.90
2018-01-26T16:40:43.239Z,2.90
2018-01-26T16:43:10.762Z,2.90
2018-01-26T16:45:38.268Z,2.80
2018-01-26T16:48:05.784Z,2.80
2018-01-26T16:50:33.288Z,2.80
2018-01-26T16:53:00.797Z,2.80
2018-01-26T16:55:28.307Z,2.80
2018-01-26T16:57:56.593Z,2.80
2018-01-26T17:00:24.121Z,2.70
2018-01-26T17:02:52.395Z,2.80
2018-01-26T17:05:20.670Z,2.80
2018-01-26T17:07:48.987Z,2.80
2018-01-26T17:10:16.510Z,2.70
2018-01-26T17:12:44.027Z,2.80
2018-01-26T17:15:11.547Z,2.80
2018-01-26T17:17:39.079Z,2.80
2018-01-26T17:20:06.591Z,2.70
2018-01-26T17:22:34.091Z,2.70
2018-01-26T17:25:02.377Z,2.70
2018-01-26T17:27:30.663Z,2.70
2018-01-26T17:29:58.170Z,2.70
2018-01-26T17:32:25.764Z,2.70
2018-01-26T17:34:53.229Z,2.70
2018-01-26T17:37:21.516Z,2.70
2018-01-26T17:39:49.785Z,2.70
2018-01-26T17:42:18.062Z,2.70
2018-01-26T17:44:46.343Z,2.70
2018-01-26T17:47:14.628Z,2.60
2018-01-26T17:49:42.144Z,2.60
2018-01-26T17:52:09.659Z,2.70
2018-01-26T17:54:37.186Z,2.60
2018-01-26T17:57:05.484Z,2.70
2018-01-26T17:59:32.992Z,2.60
2018-01-26T18:02:00.527Z,2.70
2018-01-26T18:04:28.034Z,2.70
2018-01-26T18:06:55.586Z,2.70
2018-01-26T18:09:23.115Z,2.70
2018-01-26T18:11:50.642Z,2.60
2018-01-26T18:14:18.159Z,2.60
2018-01-26T18:16:45.720Z,2.60
2018-01-26T18:19:13.232Z,2.70
2018-01-26T18:21:40.731Z,2.60
2018-01-26T18:24:08.268Z,2.70
2018-01-26T18:26:35.769Z,2.60
2018-01-26T18:29:04.056Z,2.60
2018-01-26T18:31:31.608Z,2.60
2018-01-26T18:33:59.146Z,2.60
2018-01-26T18:36:26.649Z,2.60
2018-01-26T18:38:54.198Z,2.60
2018-01-26T18:41:21.711Z,2.60
2018-01-26T18:43:49.220Z,2.60
2018-01-26T18:46:16.747Z,2.60
2018-01-26T18:48:44.256Z,2.60
2018-01-26T18:51:11.769Z,2.60
2018-01-26T18:53:40.071Z,2.50
2018-01-26T18:56:07.583Z,2.50
2018-01-26T18:58:35.107Z,2.50
2018-01-26T19:01:02.629Z,2.50
2018-01-26T19:03:30.900Z,2.50
2018-01-26T19:05:59.183Z,2.50
2018-01-26T19:08:27.469Z,2.50
2018-01-26T19:10:54.978Z,2.40
2018-01-26T19:13:22.504Z,2.40
2018-01-26T19:15:50.016Z,2.50
2018-01-26T19:18:18.327Z,2.40
2018-01-26T19:20:45.844Z,2.40
2018-01-26T19:23:13.376Z,2.50
2018-01-26T19:25:40.902Z,2.50
2018-01-26T19:28:08.408Z,2.40
2018-01-26T19:30:35.935Z,2.50
2018-01-26T19:33:03.445Z,2.50
2018-01-26T19:35:30.956Z,2.50
2018-01-26T19:37:58.494Z,2.50
2018-01-26T19:40:26.020Z,2.50
2018-01-26T19:42:53.544Z,2.40
2018-01-26T19:45:21.091Z,2.50
2018-01-26T19:47:48.599Z,2.40
2018-01-26T19:50:16.883Z,2.50
2018-01-26T19:52:45.208Z,2.50
2018-01-26T19:55:12.747Z,2.40
2018-01-26T19:57:40.263Z,2.50
2018-01-26T20:00:07.782Z,2.50
2018-01-26T20:02:35.312Z,2.50
2018-01-26T20:05:35.283Z,2.40
2018-01-26T20:08:20.228Z,2.40
2018-01-26T20:10:47.752Z,2.40
2018-01-26T20:13:21.599Z,2.40
2018-01-26T20:15:49.121Z,2.30
2018-01-26T20:18:16.661Z,2.40
2018-01-26T20:20:44.958Z,2.40
2018-01-26T20:23:12.481Z,2.30
2018-01-26T20:25:39.990Z,2.30
2018-01-26T20:28:07.506Z,2.40
2018-01-26T20:30:35.031Z,2.40
2018-01-26T20:33:02.588Z,2.40
2018-01-26T20:35:30.106Z,2.30
2018-01-26T20:37:58.395Z,2.30
2018-01-26T20:40:26.694Z,2.30
2018-01-26T20:42:54.187Z,2.30
2018-01-26T20:45:21.707Z,2.40
2018-01-26T20:47:49.245Z,2.30
2018-01-26T20:50:16.771Z,2.30
2018-01-26T20:52:44.299Z,2.30
2018-01-26T20:55:11.813Z,2.30
2018-01-26T20:57:40.088Z,2.30
2018-01-26T21:00:08.384Z,2.30
2018-01-26T21:02:35.902Z,2.30
2018-01-26T21:05:03.409Z,2.30
2018-01-26T21:07:30.947Z,2.30
2018-01-26T21:09:58.524Z,2.30
2018-01-26T21:12:26.090Z,2.30
2018-01-26T21:14:53.691Z,2.20
2018-01-26T21:17:21.189Z,2.20
2018-01-26T21:19:48.703Z,2.20
2018-01-26T21:22:16.281Z,2.20
2018-01-26T21:24:43.794Z,2.20
2018-01-26T21:27:11.316Z,2.20
2018-01-26T21:29:38.842Z,2.20
2018-01-26T21:32:06.355Z,2.20
2018-01-26T21:34:33.880Z,2.20
2018-01-26T21:37:01.424Z,2.10
2018-01-26T21:39:29.835Z,2.10
2018-01-26T21:41:57.351Z,2.10
2018-01-26T21:44:24.885Z,2.10
2018-01-26T21:46:52.412Z,2.10
2018-01-26T21:49:19.951Z,2.10
2018-01-26T21:51:47.465Z,2.10
2018-01-26T21:54:14.992Z,2.20
2018-01-26T21:56:42.542Z,2.10
2018-01-26T21:59:10.130Z,2.10
2018-01-26T22:01:37.684Z,2.10
2018-01-26T22:04:05.213Z,2.20
2018-01-26T22:06:38.280Z,2.10
2018-01-26T22:09:05.829Z,2.10
2018-01-26T22:11:33.383Z,2.10
2018-01-26T22:14:00.892Z,2.10
2018-01-26T22:16:28.424Z,2.20
2018-01-26T22:18:55.931Z,2.10
2018-01-26T22:21:23.460Z,2.20
2018-01-26T22:23:50.986Z,2.20
2018-01-26T22:26:18.492Z,2.20
2018-01-26T22:28:46.007Z,2.20
2018-01-26T22:31:13.512Z,2.20
2018-01-26T22:33:41.032Z,2.20
2018-01-26T22:36:08.563Z,2.20
2018-01-26T22:38:36.076Z,2.20
2018-01-26T22:41:03.587Z,2.20
2018-01-26T22:43:31.133Z,2.20
2018-01-26T22:45:58.639Z,2.20
2018-01-26T22:48:26.907Z,2.20
2018-01-26T22:50:54.439Z,2.10
2018-01-26T22:53:21.949Z,2.20
2018-01-26T22:55:49.478Z,2.20
2018-01-26T22:58:16.987Z,2.20
2018-01-26T23:00:44.501Z,2.20
2018-01-26T23:03:12.017Z,2.20
2018-01-26T23:05:39.553Z,2.20
2018-01-26T23:08:07.071Z,2.20
2018-01-26T23:10:34.600Z,2.20
2018-01-26T23:13:02.153Z,2.20
2018-01-26T23:15:29.650Z,2.20
2018-01-26T23:17:57.161Z,2.20
2018-01-26T23:20:24.685Z,2.20
2018-01-26T23:22:52.967Z,2.20
2018-01-26T23:25:20.477Z,2.20
2018-01-26T23:27:47.983Z,2.20
2018-01-26T23:30:15.483Z,2.20
2018-01-26T23:32:43.002Z,2.10
2018-01-26T23:35:10.537Z,2.10
2018-01-26T23:37:38.031Z,2.10
2018-01-26T23:40:05.539Z,2.10
2018-01-26T23:42:33.080Z,2.10
2018-01-26T23:45:00.601Z,2.10
2018-01-26T23:47:28.117Z,2.10
2018-01-26T23:49:55.635Z,2.00
2018-01-26T23:52:23.144Z,2.10
2018-01-26T23:54:50.647Z,2.00
2018-01-26T23:57:18.179Z,2.00
2018-01-26T23:59:46.467Z,2.00
